Observations for ALICANTE EL ALTET, Spain (LEAL)

LEAL 231100Z 08005KT 030V160 9999 SCT025 SCT052 22/16 Q1026 NOSIG   
LEAL 231030Z 08005KT 030V150 9999 SCT025 SCT052 21/16 Q1026 NOSIG   
LEAL 231000Z 08004KT 030V140 9999 SCT025 BKN044 21/16 Q1026 NOSIG   
LEAL 230930Z 07003KT 030V110 9999 FEW018 BKN024 BKN036 21/15 Q1026 NOSIG
LEAL 230900Z 05003KT 010V100 9999 FEW022 BKN035 21/15 Q1025 NOSIG   
LEAL 230830Z 30004KT 270V340 9999 FEW022 BKN035 21/15 Q1025 NOSIG   
LEAL 230800Z 31005KT 270V010 9999 FEW022 BKN035 20/14 Q1025 NOSIG   
LEAL 230730Z 31006KT 270V340 9999 SCT022 BKN050 19/14 Q1025 NOSIG   
LEAL 230700Z 32006KT 9999 -RA SCT022 BKN050 18/14 Q1024 NOSIG   
LEAL 230630Z 31007KT 9999 SCT022 BKN043 18/14 Q1024 NOSIG   
LEAL 230600Z 29004KT 260V340 9999 SCT022 BKN036 18/14 Q1024 NOSIG   
LEAL 230530Z 29004KT 270V330 9999 SCT016 BKN029 17/14 Q1024 NOSIG   
LEAL 230500Z 31007KT 9999 SCT016 BKN029 18/14 Q1024 NOSIG   
LEAL 230430Z 31007KT 9999 SCT016 BKN029 17/14 Q1024 NOSIG   
LEAL 230400Z 32006KT 9999 SCT016 BKN029 18/15 Q1024 NOSIG   
LEAL 230330Z 30006KT 9999 SCT016 BKN029 18/15 Q1024 NOSIG   
LEAL 230300Z 32006KT 9999 SCT016 BKN029 18/15 Q1024 NOSIG   
LEAL 230230Z 31005KT 9999 SCT016 BKN029 18/15 Q1024 NOSIG   
LEAL 230200Z 32005KT 9999 SCT016 BKN029 18/15 Q1024 NOSIG   
LEAL 230130Z 31006KT 9999 SCT016 BKN029 18/15 Q1024 NOSIG   
LEAL 230100Z 30006KT 9999 SCT016 BKN029 18/15 Q1024 NOSIG   
LEAL 230030Z 32004KT 290V350 CAVOK 18/15 Q1024 NOSIG
LEAL 230000Z 30005KT 280V010 CAVOK 18/15 Q1025 NOSIG
LEAL 222330Z VRB02KT CAVOK 18/15 Q1025 NOSIG
LEAL 222300Z 32004KT 300V040 CAVOK 17/15 Q1025 NOSIG
LEAL 222230Z 31004KT CAVOK 18/15 Q1025 NOSIG
LEAL 222200Z 36005KT 330V050 CAVOK 19/15 Q1025 NOSIG
LEAL 222130Z 36005KT CAVOK 19/15 Q1025 NOSIG
LEAL 222100Z 01004KT CAVOK 19/15 Q1025 NOSIG
LEAL 222030Z 02004KT 350V120 CAVOK 19/16 Q1025 NOSIG
LEAL 222000Z 06006KT CAVOK 20/16 Q1024 NOSIG
LEAL 221930Z 07006KT CAVOK 20/17 Q1024 NOSIG
LEAL 221900Z 08008KT CAVOK 20/16 Q1024 NOSIG
LEAL 221830Z 07008KT CAVOK 20/16 Q1024 NOSIG
LEAL 221800Z 07007KT CAVOK 21/16 Q1023 NOSIG
LEAL 221730Z 07009KT CAVOK 21/15 Q1023 NOSIG
LEAL 221700Z 07010KT CAVOK 21/15 Q1023 NOSIG
LEAL 221630Z 08010KT CAVOK 21/15 Q1023 NOSIG
LEAL 221600Z 08011KT CAVOK 22/15 Q1023 NOSIG
LEAL 221530Z 07013KT 9999 FEW045 22/14 Q1023 NOSIG  
LEAL 221500Z 09013KT 9999 FEW045 22/14 Q1023 NOSIG  
LEAL 221430Z 08013KT 050V110 9999 FEW045 22/15 Q1023 NOSIG  
LEAL 221400Z 09013KT 060V120 9999 FEW045 22/16 Q1023 NOSIG  
LEAL 221330Z 08013KT 050V110 9999 FEW045 23/16 Q1023 NOSIG  
LEAL 221300Z 09014KT 9999 FEW035 23/16 Q1023 NOSIG  
LEAL 221230Z 08014KT 9999 FEW035 23/14 Q1024 NOSIG  
LEAL 221200Z 08014KT 9999 FEW045 24/16 Q1024 NOSIG  
LEAL 221130Z 08014KT 9999 FEW045 23/15 Q1024 NOSIG  
LEAL 221100Z 08013KT 9999 FEW045 23/15 Q1024 NOSIG  
LEAL 221030Z 08012KT 9999 FEW045 23/15 Q1024 NOSIG